Aguanga, California
Current Conditions -  °F | °C
As of 6:15 AM on Wednesday 28 Jan 2015 (Local Time) from KF70 Reporting Station
Clear Clear  
Wind Chill:   Ceiling: Unl
Heat Index:   Visibility: 10mi
Dew Point:   Wind: 5mph
Humidity: 93%   Direction: 20°NNE
Pressure: 30.17"   Gusts: NA
Location:  33.44°N, 116.87°W
Report Text: KF70 281415Z AUTO 02004KT 10SM CLR 07/06 A3017 RMK AO1
Loading
Personal Weather Stations






























Interactive Weather Map New forecast layout! Learn more

10-Day Weather Forecast

Advertisements
Track Severe Weather on mobile